createdAt,value
2022-12-13T00:02:49.078Z,-7.87
2022-12-13T00:05:50.459Z,-7.90
2022-12-13T00:08:52.263Z,-7.89
2022-12-13T00:11:53.670Z,-7.86
2022-12-13T00:14:55.075Z,-7.85
2022-12-13T00:17:56.455Z,-7.82
2022-12-13T00:20:58.036Z,-7.83
2022-12-13T00:24:00.868Z,-7.82
2022-12-13T00:27:02.225Z,-7.90
2022-12-13T00:30:04.278Z,-7.95
2022-12-13T00:33:06.853Z,-8.03
2022-12-13T00:36:08.856Z,-8.17
2022-12-13T00:39:10.368Z,-8.29
2022-12-13T00:42:11.718Z,-8.35
2022-12-13T00:45:13.483Z,-8.36
2022-12-13T00:48:15.786Z,-8.35
2022-12-13T00:51:17.740Z,-8.34
2022-12-13T00:54:19.100Z,-8.29
2022-12-13T00:57:20.458Z,-8.22
2022-12-13T01:00:22.178Z,-8.10
2022-12-13T01:03:23.538Z,-8.00
2022-12-13T01:06:29.765Z,-7.94
2022-12-13T01:09:31.537Z,-7.89
2022-12-13T01:12:35.749Z,-7.82
2022-12-13T01:15:42.087Z,-7.70
2022-12-13T01:18:43.425Z,-7.63
2022-12-13T01:21:44.803Z,-7.61
2022-12-13T01:24:46.144Z,-7.63
2022-12-13T01:27:47.503Z,-7.65
2022-12-13T01:31:00.659Z,-7.68
2022-12-13T01:34:02.040Z,-7.74
2022-12-13T01:37:03.426Z,-7.72
2022-12-13T01:40:15.932Z,-7.72
2022-12-13T01:43:18.302Z,-7.70
2022-12-13T01:46:21.543Z,-7.67
2022-12-13T01:49:23.011Z,-7.57
2022-12-13T01:52:25.055Z,-7.48
2022-12-13T01:55:29.671Z,-7.38
2022-12-13T01:58:31.543Z,-7.30
2022-12-13T02:01:33.138Z,-7.23
2022-12-13T02:04:45.505Z,-7.22
2022-12-13T02:07:48.471Z,-7.21
2022-12-13T02:10:49.872Z,-7.18
2022-12-13T02:13:51.264Z,-7.14
2022-12-13T02:17:18.647Z,-7.06
2022-12-13T02:20:36.161Z,-7.08
2022-12-13T02:24:08.774Z,-7.11
2022-12-13T02:27:42.965Z,-7.14
2022-12-13T02:30:58.091Z,-7.16
2022-12-13T02:34:13.237Z,-7.05
2022-12-13T02:37:26.712Z,-7.03
2022-12-13T02:40:31.874Z,-7.07
2022-12-13T02:44:05.671Z,-7.02
2022-12-13T02:47:27.177Z,-6.92
2022-12-13T02:50:30.309Z,-6.86
2022-12-13T02:53:33.631Z,-6.81
2022-12-13T02:56:36.037Z,-6.83
2022-12-13T02:59:39.265Z,-6.79
2022-12-13T03:02:48.073Z,-6.77
2022-12-13T03:06:13.162Z,-6.74
2022-12-13T03:09:20.470Z,-6.70
2022-12-13T03:12:37.039Z,-6.68
2022-12-13T03:15:49.223Z,-6.68
2022-12-13T03:18:54.937Z,-6.69
2022-12-13T03:21:56.666Z,-6.71
2022-12-13T03:24:58.007Z,-6.73
2022-12-13T03:28:02.457Z,-6.75
2022-12-13T03:31:04.849Z,-6.76
2022-12-13T03:34:06.222Z,-6.77
2022-12-13T03:37:07.653Z,-6.79
2022-12-13T03:40:09.694Z,-6.82
2022-12-13T03:43:11.639Z,-6.83
2022-12-13T03:46:13.124Z,-6.85
2022-12-13T03:49:17.325Z,-6.88
2022-12-13T03:52:19.049Z,-6.89
2022-12-13T03:55:20.395Z,-6.89
2022-12-13T03:58:21.988Z,-6.83
2022-12-13T04:01:23.546Z,-6.84
2022-12-13T04:04:24.924Z,-6.82
2022-12-13T04:07:26.328Z,-6.81
2022-12-13T04:10:36.028Z,-6.77
2022-12-13T04:13:37.370Z,-6.75
2022-12-13T04:16:38.859Z,-6.69
2022-12-13T04:19:40.473Z,-6.64
2022-12-13T04:22:41.840Z,-6.62
2022-12-13T04:25:44.169Z,-6.58
2022-12-13T04:28:50.851Z,-6.57
2022-12-13T04:31:55.580Z,-6.55
2022-12-13T04:35:01.119Z,-6.54
2022-12-13T04:38:03.141Z,-6.58
2022-12-13T04:41:14.099Z,-6.56
2022-12-13T04:44:28.937Z,-6.61
2022-12-13T04:47:31.207Z,-6.63
2022-12-13T04:50:33.186Z,-6.65
2022-12-13T04:53:34.568Z,-6.64
2022-12-13T04:56:37.513Z,-6.63
2022-12-13T04:59:39.593Z,-6.64
2022-12-13T05:02:41.764Z,-6.62
2022-12-13T05:05:43.278Z,-6.62
2022-12-13T05:08:44.607Z,-6.60
2022-12-13T05:11:46.195Z,-6.61
2022-12-13T05:14:49.090Z,-6.70
2022-12-13T05:17:50.474Z,-6.67
2022-12-13T05:20:53.061Z,-6.62
2022-12-13T05:23:54.396Z,-6.59
2022-12-13T05:26:55.731Z,-6.56
2022-12-13T05:30:05.352Z,-6.54
2022-12-13T05:33:07.428Z,-6.64
2022-12-13T05:36:09.887Z,-6.68
2022-12-13T05:39:28.946Z,-6.64
2022-12-13T05:42:31.121Z,-6.61
2022-12-13T05:45:33.338Z,-6.59
2022-12-13T05:48:34.731Z,-6.55
2022-12-13T05:51:36.056Z,-6.56
2022-12-13T05:54:37.528Z,-6.60
2022-12-13T05:57:50.675Z,-6.61
2022-12-13T06:00:52.603Z,-6.65
2022-12-13T06:03:53.968Z,-6.75
2022-12-13T06:06:55.326Z,-6.82
2022-12-13T06:10:09.540Z,-6.87
2022-12-13T06:13:21.238Z,-6.91
2022-12-13T06:16:32.977Z,-6.94
2022-12-13T06:19:34.327Z,-6.99
2022-12-13T06:22:35.723Z,-6.99
2022-12-13T06:25:37.113Z,-7.02
2022-12-13T06:28:38.497Z,-7.04
2022-12-13T06:31:39.850Z,-7.07
2022-12-13T06:34:41.191Z,-7.14
2022-12-13T06:37:42.571Z,-7.20
2022-12-13T06:40:43.913Z,-7.24
2022-12-13T06:43:46.607Z,-7.25
2022-12-13T06:46:47.978Z,-7.21
2022-12-13T06:49:49.294Z,-7.18
2022-12-13T06:52:50.666Z,-7.16
2022-12-13T06:55:52.000Z,-7.17
2022-12-13T06:58:53.334Z,-7.18
2022-12-13T07:02:04.149Z,-7.19
2022-12-13T07:05:06.198Z,-7.19
2022-12-13T07:08:07.578Z,-7.18
2022-12-13T07:11:14.660Z,-7.11
2022-12-13T07:14:16.043Z,-7.04
2022-12-13T07:17:32.391Z,-6.96
2022-12-13T07:20:37.077Z,-6.95
2022-12-13T07:23:39.651Z,-6.95
2022-12-13T07:26:40.992Z,-6.93
2022-12-13T07:29:43.335Z,-6.94
2022-12-13T07:32:44.947Z,-6.98
2022-12-13T07:35:46.288Z,-7.03
2022-12-13T07:38:52.636Z,-7.08
2022-12-13T07:41:56.985Z,-7.09
2022-12-13T07:44:58.335Z,-7.10
2022-12-13T07:48:04.172Z,-7.06
2022-12-13T07:51:07.997Z,-6.98
2022-12-13T07:54:09.387Z,-6.93
2022-12-13T07:57:10.741Z,-6.88
2022-12-13T08:00:12.661Z,-6.78
2022-12-13T08:03:24.368Z,-6.72
2022-12-13T08:06:26.293Z,-6.60
2022-12-13T08:09:28.333Z,-6.59
2022-12-13T08:12:30.650Z,-6.58
2022-12-13T08:15:34.194Z,-6.55
2022-12-13T08:18:35.850Z,-6.44
2022-12-13T08:21:57.192Z,-6.33
2022-12-13T08:24:59.541Z,-6.28
2022-12-13T08:28:01.619Z,-6.20
2022-12-13T08:31:09.185Z,-6.19
2022-12-13T08:34:10.546Z,-6.13
2022-12-13T08:37:12.690Z,-6.11
2022-12-13T08:40:14.067Z,-6.16
2022-12-13T08:43:15.408Z,-6.22
2022-12-13T08:46:16.815Z,-6.25
2022-12-13T08:49:18.237Z,-6.24
2022-12-13T08:52:21.304Z,-6.16
2022-12-13T08:55:31.702Z,-5.98
2022-12-13T08:58:33.875Z,-5.81
2022-12-13T09:01:35.192Z,-5.57
2022-12-13T09:04:36.541Z,-5.42
2022-12-13T09:07:38.116Z,-5.37
2022-12-13T09:10:39.504Z,-5.39
2022-12-13T09:13:43.185Z,-5.33
2022-12-13T09:16:50.565Z,-5.29
2022-12-13T09:19:57.937Z,-5.24
2022-12-13T09:23:02.751Z,-5.17
2022-12-13T09:26:05.422Z,-5.06
2022-12-13T09:29:11.182Z,-4.99
2022-12-13T09:32:13.179Z,-4.95
2022-12-13T09:35:14.645Z,-4.88
2022-12-13T09:38:15.991Z,-4.84
2022-12-13T09:41:41.057Z,-4.80
2022-12-13T09:45:03.078Z,-4.71
2022-12-13T09:48:13.313Z,-4.57
2022-12-13T09:51:18.116Z,-4.49
2022-12-13T09:54:33.279Z,-4.35
2022-12-13T09:57:34.724Z,-4.24
2022-12-13T10:00:36.826Z,-4.18
2022-12-13T10:03:43.947Z,-4.12
2022-12-13T10:06:45.358Z,-4.11
2022-12-13T10:09:47.403Z,-4.06
2022-12-13T10:12:55.866Z,-4.00
2022-12-13T10:16:02.430Z,-3.96
2022-12-13T10:19:29.186Z,-3.95
2022-12-13T10:22:31.464Z,-3.95
2022-12-13T10:25:51.339Z,-3.97
2022-12-13T10:29:03.108Z,-3.97
2022-12-13T10:32:12.520Z,-3.94
2022-12-13T10:35:40.559Z,-3.79
2022-12-13T10:38:44.423Z,-3.71
2022-12-13T10:41:46.269Z,-3.62
2022-12-13T10:44:50.856Z,-3.47
2022-12-13T10:47:52.473Z,-3.45
2022-12-13T10:51:11.021Z,-3.42
2022-12-13T10:54:38.548Z,-3.41
2022-12-13T10:57:52.384Z,-3.35
2022-12-13T11:01:09.836Z,-3.28
2022-12-13T11:04:28.546Z,-3.19
2022-12-13T11:07:32.487Z,-3.16
2022-12-13T11:10:33.854Z,-3.09
2022-12-13T11:13:44.449Z,-3.03
2022-12-13T11:16:51.591Z,-3.01
2022-12-13T11:19:56.744Z,-3.02
2022-12-13T11:23:07.257Z,-2.95
2022-12-13T11:26:24.269Z,-2.87
2022-12-13T11:29:44.138Z,-2.84
2022-12-13T11:33:19.537Z,-2.84
2022-12-13T11:36:30.477Z,-2.90
2022-12-13T11:39:41.496Z,-2.93
2022-12-13T11:43:01.381Z,-2.86
2022-12-13T11:46:11.884Z,-2.89
2022-12-13T11:49:18.558Z,-2.75
2022-12-13T11:52:35.435Z,-2.64
2022-12-13T11:55:42.110Z,-2.54
2022-12-13T11:59:03.104Z,-2.52
2022-12-13T12:02:17.078Z,-2.30
2022-12-13T12:05:31.211Z,-2.42
2022-12-13T12:08:38.078Z,-2.50
2022-12-13T12:11:45.535Z,-2.57
2022-12-13T12:14:56.208Z,-2.57
2022-12-13T12:18:14.439Z,-2.52
2022-12-13T12:22:04.989Z,-2.57
2022-12-13T12:25:13.051Z,-2.62
2022-12-13T12:28:44.225Z,-2.67
2022-12-13T12:31:58.867Z,-2.66
2022-12-13T12:35:21.097Z,-2.73
2022-12-13T12:38:58.458Z,-2.66
2022-12-13T12:42:18.077Z,-2.68
2022-12-13T12:49:38.920Z,-2.38
2022-12-13T12:52:48.868Z,-2.14
2022-12-13T12:56:02.006Z,-1.97
2022-12-13T12:59:30.781Z,-1.97
2022-12-13T13:02:50.182Z,-1.97
2022-12-13T13:06:02.975Z,-1.92
2022-12-13T13:09:07.835Z,-1.89
2022-12-13T13:12:28.893Z,-1.96
2022-12-13T13:15:31.708Z,-2.18
2022-12-13T13:19:03.875Z,-2.34
2022-12-13T13:22:05.226Z,-2.45
2022-12-13T13:25:31.974Z,-2.45
2022-12-13T13:28:33.359Z,-2.45
2022-12-13T13:32:02.725Z,-2.51
2022-12-13T13:35:31.953Z,-2.62
2022-12-13T13:38:52.535Z,-2.69
2022-12-13T13:42:20.111Z,-2.67
2022-12-13T13:45:25.201Z,-2.59
2022-12-13T13:48:48.417Z,-2.57
2022-12-13T13:52:24.865Z,-2.60
2022-12-13T13:55:57.123Z,-2.72
2022-12-13T13:59:18.412Z,-2.81
2022-12-13T14:02:31.295Z,-2.83
2022-12-13T14:05:52.217Z,-2.80
2022-12-13T14:08:56.306Z,-2.73
2022-12-13T14:12:22.500Z,-2.68
2022-12-13T14:15:50.947Z,-2.75
2022-12-13T14:19:01.581Z,-2.80
2022-12-13T14:22:17.205Z,-2.87
2022-12-13T14:25:24.557Z,-2.82
2022-12-13T14:28:33.201Z,-2.84
2022-12-13T14:31:40.516Z,-2.95
2022-12-13T14:34:44.881Z,-3.01
2022-12-13T14:37:56.123Z,-3.06
2022-12-13T14:41:01.052Z,-3.10
2022-12-13T14:44:20.490Z,-3.17
2022-12-13T14:47:22.675Z,-3.23
2022-12-13T14:50:26.459Z,-3.33
2022-12-13T14:53:37.595Z,-3.39
2022-12-13T14:56:54.087Z,-3.43
2022-12-13T14:59:58.027Z,-3.47
2022-12-13T15:03:03.035Z,-3.49
2022-12-13T15:06:05.067Z,-3.53
2022-12-13T15:09:13.008Z,-3.56
2022-12-13T15:12:24.643Z,-3.64
2022-12-13T15:15:33.484Z,-3.68
2022-12-13T15:18:34.824Z,-3.71
2022-12-13T15:21:39.952Z,-3.80
2022-12-13T15:24:45.625Z,-3.83
2022-12-13T15:27:50.665Z,-3.91
2022-12-13T15:30:52.152Z,-3.96
2022-12-13T15:33:53.496Z,-3.98
2022-12-13T15:37:28.229Z,-3.94
2022-12-13T15:40:31.535Z,-3.95
2022-12-13T15:43:43.332Z,-3.95
2022-12-13T15:46:47.209Z,-3.98
2022-12-13T15:49:59.095Z,-3.98
2022-12-13T15:53:05.045Z,-3.97
2022-12-13T15:56:39.836Z,-3.94
2022-12-13T15:59:43.011Z,-3.91
2022-12-13T16:02:49.098Z,-3.94
2022-12-13T16:05:53.134Z,-4.04
2022-12-13T16:08:58.393Z,-4.04
2022-12-13T16:12:03.603Z,-4.01
2022-12-13T16:15:29.175Z,-4.02
2022-12-13T16:18:41.231Z,-4.00
2022-12-13T16:21:42.542Z,-4.00
2022-12-13T16:24:43.888Z,-3.97
2022-12-13T16:27:45.930Z,-4.00
2022-12-13T16:30:53.155Z,-3.97
2022-12-13T16:33:54.911Z,-3.97
2022-12-13T16:36:56.284Z,-3.95
2022-12-13T16:39:57.643Z,-3.92
2022-12-13T16:43:01.790Z,-3.89
2022-12-13T16:47:13.814Z,-3.94
2022-12-13T16:49:28.819Z,-3.99
2022-12-13T16:52:30.167Z,-3.99
2022-12-13T16:55:31.504Z,-4.02
2022-12-13T16:58:32.872Z,-4.05
2022-12-13T17:01:34.244Z,-4.08
2022-12-13T17:04:37.049Z,-4.11
2022-12-13T17:07:38.439Z,-4.13
2022-12-13T17:10:41.220Z,-4.08
2022-12-13T17:13:43.370Z,-4.08
2022-12-13T17:16:44.751Z,-4.11
2022-12-13T17:19:46.197Z,-4.13
2022-12-13T17:22:47.567Z,-4.14
2022-12-13T17:25:58.547Z,-4.15
2022-12-13T17:29:00.302Z,-4.14
2022-12-13T17:32:01.666Z,-4.14
2022-12-13T17:35:03.730Z,-4.16
2022-12-13T17:38:05.054Z,-4.15
2022-12-13T17:41:06.437Z,-4.22
2022-12-13T17:44:07.761Z,-4.29
2022-12-13T17:47:09.350Z,-4.31
2022-12-13T17:50:10.714Z,-4.34
2022-12-13T17:53:12.065Z,-4.36
2022-12-13T17:56:14.652Z,-4.40
2022-12-13T17:59:16.395Z,-4.47
2022-12-13T18:02:17.825Z,-4.47
2022-12-13T18:05:19.210Z,-4.48
2022-12-13T18:08:20.546Z,-4.50
2022-12-13T18:11:37.092Z,-4.53
2022-12-13T18:14:39.008Z,-4.59
2022-12-13T18:18:10.113Z,-4.60
2022-12-13T18:21:09.828Z,-4.63
2022-12-13T18:24:11.868Z,-4.68
2022-12-13T18:27:13.220Z,-4.77
2022-12-13T18:30:14.651Z,-4.84
2022-12-13T18:33:15.992Z,-4.90
2022-12-13T18:36:19.354Z,-4.91
2022-12-13T18:39:20.700Z,-5.05
2022-12-13T18:42:22.072Z,-5.06
2022-12-13T18:45:23.444Z,-5.10
2022-12-13T18:48:25.200Z,-5.13
2022-12-13T18:51:27.788Z,-5.17
2022-12-13T18:54:29.265Z,-5.20
2022-12-13T18:57:30.663Z,-5.22
2022-12-13T19:00:32.088Z,-5.26
2022-12-13T19:03:35.161Z,-5.27
2022-12-13T19:06:36.632Z,-5.30
2022-12-13T19:09:37.988Z,-5.36
2022-12-13T19:12:39.345Z,-5.40
2022-12-13T19:15:40.829Z,-5.41
2022-12-13T19:18:42.597Z,-5.44
2022-12-13T19:21:43.950Z,-5.43
2022-12-13T19:24:45.341Z,-5.44
2022-12-13T19:27:46.696Z,-5.50
2022-12-13T19:30:48.229Z,-5.51
2022-12-13T19:33:49.651Z,-5.53
2022-12-13T19:36:52.390Z,-5.52
2022-12-13T19:39:53.743Z,-5.53
2022-12-13T19:42:56.278Z,-5.56
2022-12-13T19:45:57.629Z,-5.56
2022-12-13T19:48:59.341Z,-5.56
2022-12-13T19:52:00.681Z,-5.64
2022-12-13T19:55:02.030Z,-5.68
2022-12-13T19:58:03.532Z,-5.66
2022-12-13T20:01:06.525Z,-5.68
2022-12-13T20:04:07.903Z,-5.68
2022-12-13T20:07:09.271Z,-5.68
2022-12-13T20:10:11.656Z,-5.66
2022-12-13T20:13:13.008Z,-5.68
2022-12-13T20:16:20.328Z,-5.69
2022-12-13T20:19:21.737Z,-5.71
2022-12-13T20:22:23.294Z,-5.75
2022-12-13T20:25:24.651Z,-5.76
2022-12-13T20:28:25.999Z,-5.81
2022-12-13T20:31:30.277Z,-5.85
2022-12-13T20:34:31.663Z,-5.89
2022-12-13T20:37:33.074Z,-5.98
2022-12-13T20:40:34.407Z,-6.03
2022-12-13T20:43:35.804Z,-6.01
2022-12-13T20:46:37.768Z,-5.99
2022-12-13T20:49:39.209Z,-6.03
2022-12-13T20:52:40.562Z,-6.05
2022-12-13T20:55:41.924Z,-6.06
2022-12-13T20:58:50.233Z,-6.09
2022-12-13T21:01:51.588Z,-6.15
2022-12-13T21:04:52.965Z,-6.21
2022-12-13T21:07:54.290Z,-6.35
2022-12-13T21:11:01.876Z,-6.48
2022-12-13T21:14:23.053Z,-6.60
2022-12-13T21:17:24.760Z,-6.70
2022-12-13T21:20:26.467Z,-6.76
2022-12-13T21:23:29.617Z,-6.79
2022-12-13T21:26:35.397Z,-6.86
2022-12-13T21:29:37.201Z,-6.90
2022-12-13T21:32:38.527Z,-6.93
2022-12-13T21:35:39.854Z,-6.98
2022-12-13T21:38:41.827Z,-7.03
2022-12-13T21:41:43.827Z,-7.11
2022-12-13T21:44:45.155Z,-7.22
2022-12-13T21:47:46.495Z,-7.26
2022-12-13T21:50:50.922Z,-7.27
2022-12-13T21:53:53.503Z,-7.28
2022-12-13T21:56:54.856Z,-7.29
2022-12-13T21:59:56.211Z,-7.27
2022-12-13T22:02:57.878Z,-7.24
2022-12-13T22:05:59.234Z,-7.24
2022-12-13T22:09:00.627Z,-7.25
2022-12-13T22:12:05.639Z,-7.24
2022-12-13T22:15:15.120Z,-7.27
2022-12-13T22:18:16.465Z,-7.30
2022-12-13T22:21:17.820Z,-7.34
2022-12-13T22:24:19.163Z,-7.36
2022-12-13T22:27:20.889Z,-7.41
2022-12-13T22:30:24.834Z,-7.43
2022-12-13T22:33:26.204Z,-7.47
2022-12-13T22:36:27.588Z,-7.51
2022-12-13T22:39:28.937Z,-7.54
2022-12-13T22:42:30.296Z,-7.63
2022-12-13T22:45:35.939Z,-7.65
2022-12-13T22:48:37.493Z,-7.66
2022-12-13T22:51:39.288Z,-7.63
2022-12-13T22:54:40.856Z,-7.64
2022-12-13T22:57:42.522Z,-7.62
2022-12-13T23:00:50.135Z,-7.61
2022-12-13T23:03:51.951Z,-7.62
2022-12-13T23:06:53.294Z,-7.60
2022-12-13T23:09:54.683Z,-7.61
2022-12-13T23:12:56.135Z,-7.63
2022-12-13T23:15:57.480Z,-7.67
2022-12-13T23:19:31.804Z,-7.68
2022-12-13T23:22:23.185Z,-7.73
2022-12-13T23:25:24.541Z,-7.74
2022-12-13T23:28:26.278Z,-7.75
2022-12-13T23:31:29.905Z,-7.75
2022-12-13T23:34:31.567Z,-7.75
2022-12-13T23:37:34.392Z,-7.73
2022-12-13T23:40:36.192Z,-7.77
2022-12-13T23:43:39.686Z,-7.75
2022-12-13T23:46:41.146Z,-7.75
2022-12-13T23:49:42.501Z,-7.75
2022-12-13T23:52:43.878Z,-7.73
2022-12-13T23:55:45.290Z,-7.74
2022-12-13T23:58:50.843Z,-7.84
